Time;durP1;ratioP1;P1;durP2;ratioP2;P2;SDS_P1;SDS_P2;PMS_P1;PMS_P2;Temp;Humidity;BMP_temperature;BMP_pressure;BME280_temperature;BME280_humidity;BME280_pressure;Samples;Min_cycle;Max_cycle;Signal;HPM_P1;HPM_P2
2024/01/23 00:00:23;;;;;;;14.88;2.97;;;;;;;11.69;56.26;101589.16;4837775;29;119740;-79
2024/01/23 00:02:51;;;;;;;15.65;3.30;;;;;;;11.67;56.28;101580.41;4833316;29;120818;-78
2024/01/23 00:05:18;;;;;;;15.68;2.75;;;;;;;11.66;56.14;101579.53;4850158;29;124002;-78
2024/01/23 00:07:45;;;;;;;10.43;2.35;;;;;;;11.66;56.35;101584.00;4852143;28;123932;-78
2024/01/23 00:10:12;;;;;;;14.05;2.88;;;;;;;11.64;56.24;101585.81;4818672;28;120346;-78
2024/01/23 00:12:39;;;;;;;10.80;2.67;;;;;;;11.63;55.98;101600.00;4844585;29;120793;-78
2024/01/23 00:15:07;;;;;;;14.55;2.28;;;;;;;11.62;55.95;101603.56;4820662;29;124990;-78
2024/01/23 00:17:34;;;;;;;13.80;2.72;;;;;;;11.59;55.87;101609.03;4835517;29;124716;-78
2024/01/23 00:20:04;;;;;;;15.27;2.65;;;;;;;11.57;55.84;101616.16;4853637;28;120218;-78
2024/01/23 00:22:31;;;;;;;13.68;2.53;;;;;;;11.54;55.77;101627.75;4852087;28;118812;-78
2024/01/23 00:24:59;;;;;;;12.93;2.53;;;;;;;11.54;55.95;101629.53;4836608;28;124298;-78
2024/01/23 00:27:26;;;;;;;13.48;2.55;;;;;;;11.52;55.88;101623.44;4837996;29;124419;-78
2024/01/23 00:29:54;;;;;;;15.30;2.78;;;;;;;11.52;55.70;101632.25;4842253;28;1142767;-77
2024/01/23 00:32:23;;;;;;;14.00;2.47;;;;;;;11.52;55.78;101628.72;4876464;28;119171;-78
2024/01/23 00:34:51;;;;;;;8.25;2.08;;;;;;;11.52;55.79;101628.72;4886685;28;123488;-77
2024/01/23 00:37:18;;;;;;;14.27;2.50;;;;;;;11.53;55.92;101630.44;4859795;28;122404;-77
2024/01/23 00:39:46;;;;;;;18.17;2.90;;;;;;;11.53;55.78;101643.72;4883994;28;118468;-78
2024/01/23 00:42:13;;;;;;;16.77;2.63;;;;;;;11.54;55.77;101661.38;4868385;28;118392;-78
2024/01/23 00:44:40;;;;;;;12.20;2.45;;;;;;;11.54;55.87;101653.41;4887717;28;125684;-78
2024/01/23 00:47:08;;;;;;;11.48;2.42;;;;;;;11.54;55.90;101653.41;4890423;28;124296;-78
2024/01/23 00:49:35;;;;;;;15.38;2.67;;;;;;;11.54;55.61;101656.94;4870531;28;118629;-78
2024/01/23 00:52:02;;;;;;;11.65;2.33;;;;;;;11.55;55.70;101671.06;4888410;28;117721;-77
2024/01/23 00:54:29;;;;;;;12.63;2.55;;;;;;;11.56;55.64;101678.09;4872607;28;122014;-77
2024/01/23 00:56:57;;;;;;;19.67;3.28;;;;;;;11.54;55.48;101679.94;4890156;28;124565;-77
2024/01/23 00:59:24;;;;;;;10.68;2.22;;;;;;;11.55;55.63;101679.03;4885976;28;119481;-78
2024/01/23 01:01:51;;;;;;;12.45;2.60;;;;;;;11.55;55.63;101692.31;4866407;28;121460;-78
2024/01/23 01:04:18;;;;;;;10.45;2.50;;;;;;;11.56;55.62;101694.03;4857064;28;123362;-77
2024/01/23 01:06:46;;;;;;;16.50;2.50;;;;;;;11.56;55.60;101715.25;4871365;28;123519;-77
2024/01/23 01:09:13;;;;;;;12.95;2.22;;;;;;;11.55;55.36;101697.59;4874434;28;118800;-78
2024/01/23 01:11:41;;;;;;;12.45;2.33;;;;;;;11.54;55.55;101711.78;4889224;28;119154;-78
2024/01/23 01:14:08;;;;;;;13.52;2.55;;;;;;;11.54;55.44;101722.38;4882724;28;123411;-78
2024/01/23 01:16:35;;;;;;;14.40;2.67;;;;;;;11.53;55.42;101710.03;4862538;28;123450;-77
2024/01/23 01:19:03;;;;;;;16.98;2.40;;;;;;;11.50;55.41;101706.56;4868903;28;117910;-78
2024/01/23 01:21:31;;;;;;;17.50;2.95;;;;;;;11.49;55.53;101715.47;4878558;28;119355;-78
2024/01/23 01:23:59;;;;;;;13.10;3.08;;;;;;;11.47;55.34;101717.31;4870163;28;124673;-78
2024/01/23 01:26:27;;;;;;;11.98;2.28;;;;;;;11.46;55.16;101725.31;4866153;28;121926;-78
2024/01/23 01:28:54;;;;;;;9.95;2.53;;;;;;;11.46;55.18;101734.13;4873460;28;119922;-78
2024/01/23 01:31:21;;;;;;;17.65;2.78;;;;;;;11.45;55.31;101735.06;4870061;28;119226;-78
2024/01/23 01:33:49;;;;;;;14.88;2.80;;;;;;;11.44;55.49;101738.63;4858109;28;123186;-77
2024/01/23 01:36:16;;;;;;;12.45;2.28;;;;;;;11.42;55.13;101740.47;4877045;28;123122;-78
2024/01/23 01:38:43;;;;;;;11.90;2.38;;;;;;;11.42;55.18;101756.38;4873999;28;119558;-77
2024/01/23 01:41:15;;;;;;;14.48;2.97;;;;;;;11.41;55.24;101765.25;4884928;28;118949;-78
2024/01/23 01:43:42;;;;;;;18.17;3.03;;;;;;;11.42;55.12;101771.44;4867512;28;123829;-78
2024/01/23 01:46:20;;;;;;;12.45;2.40;;;;;;;11.37;55.19;101763.63;4869199;28;124819;-77
2024/01/23 01:48:48;;;;;;;16.90;3.28;;;;;;;11.35;55.00;101760.16;4876142;28;118802;-78
2024/01/23 01:51:19;;;;;;;14.88;2.67;;;;;;;11.32;54.92;101760.28;4850353;28;119005;-78
2024/01/23 01:53:50;;;;;;;17.33;2.75;;;;;;;11.29;54.92;101753.25;4864375;28;125664;-78
2024/01/23 01:56:18;;;;;;;17.45;3.00;;;;;;;11.25;54.86;101769.34;4854191;28;124165;-79
2024/01/23 01:58:46;;;;;;;16.33;2.53;;;;;;;11.21;54.92;101773.03;4840461;28;119129;-78
2024/01/23 02:01:14;;;;;;;16.70;2.72;;;;;;;11.18;55.03;101781.06;4885923;28;118771;-77
2024/01/23 02:03:41;;;;;;;18.90;2.65;;;;;;;11.13;55.00;101791.81;4878810;28;123116;-76
2024/01/23 02:06:10;;;;;;;14.30;2.53;;;;;;;11.09;54.97;101785.75;4864985;28;124141;-77
2024/01/23 02:08:37;;;;;;;19.38;2.90;;;;;;;11.06;55.08;101796.44;4862882;28;118469;-76
2024/01/23 02:11:04;;;;;;;14.40;2.67;;;;;;;11.01;54.92;101798.38;4879066;28;118657;-76
2024/01/23 02:13:32;;;;;;;12.70;2.85;;;;;;;10.99;55.01;101805.50;4894813;28;124775;-77
2024/01/23 02:15:59;;;;;;;15.48;2.75;;;;;;;10.95;55.23;101814.47;4877791;28;123210;-77
2024/01/23 02:18:26;;;;;;;11.95;2.67;;;;;;;10.93;55.14;101816.31;4876124;28;118750;-78
2024/01/23 02:20:53;;;;;;;14.60;2.80;;;;;;;10.91;55.28;101818.13;4855666;28;118935;-78
2024/01/23 02:23:25;;;;;;;13.80;2.35;;;;;;;10.88;55.19;101818.22;4861253;28;125470;-78
2024/01/23 02:25:52;;;;;;;14.43;2.58;;;;;;;10.85;55.15;101828.91;4852952;28;122012;-78
2024/01/23 02:28:19;;;;;;;12.05;2.65;;;;;;;10.83;55.15;101828.09;4866145;28;117789;-79
2024/01/23 02:30:47;;;;;;;14.02;2.92;;;;;;;10.81;55.33;101843.16;4841121;28;120513;-78
2024/01/23 02:33:14;;;;;;;12.73;2.38;;;;;;;10.79;55.58;101847.66;4857616;28;124967;-78
2024/01/23 02:35:42;;;;;;;14.55;2.92;;;;;;;10.76;55.22;101856.56;4856213;28;124686;-78
2024/01/23 02:38:09;;;;;;;15.60;2.92;;;;;;;10.74;55.39;101852.22;4872513;28;120589;-78
2024/01/23 02:40:36;;;;;;;13.63;2.85;;;;;;;10.73;55.26;101861.09;4849830;28;119293;-78
2024/01/23 02:43:04;;;;;;;17.65;2.97;;;;;;;10.70;55.34;101852.31;4860910;28;126715;-78
2024/01/23 02:45:31;;;;;;;16.83;2.42;;;;;;;10.69;55.56;101850.56;4870907;28;124094;-78
2024/01/23 02:47:58;;;;;;;15.18;3.10;;;;;;;10.66;55.38;101861.28;4855563;28;119726;-78
2024/01/23 02:50:27;;;;;;;12.80;2.70;;;;;;;10.64;55.57;101868.41;4856758;28;119972;-78
2024/01/23 02:52:54;;;;;;;18.70;2.90;;;;;;;10.64;55.71;101880.75;4870103;28;125212;-78
2024/01/23 02:55:21;;;;;;;14.38;2.95;;;;;;;10.62;55.71;101883.44;4839403;28;125236;-78
2024/01/23 02:57:48;;;;;;;16.58;2.90;;;;;;;10.60;55.40;101882.63;4855916;28;118412;-79
2024/01/23 03:00:16;;;;;;;18.48;3.10;;;;;;;10.60;55.48;101893.22;4851675;28;119341;-78
2024/01/23 03:02:43;;;;;;;12.02;2.85;;;;;;;10.59;55.61;101896.78;4855615;28;123518;-78
2024/01/23 03:05:11;;;;;;;13.90;3.17;;;;;;;10.57;55.73;101893.31;4852801;28;124680;-78
2024/01/23 03:07:38;;;;;;;13.45;2.58;;;;;;;10.57;55.51;101903.91;4873168;28;119299;-78
2024/01/23 03:10:07;;;;;;;14.50;2.63;;;;;;;10.55;55.63;101895.16;4855893;28;118718;-78
2024/01/23 03:12:34;;;;;;;14.40;2.53;;;;;;;10.54;55.77;101898.69;4858215;28;123920;-78
2024/01/23 03:15:02;;;;;;;18.35;2.70;;;;;;;10.52;55.85;101911.13;4854876;28;124433;-78
2024/01/23 03:17:29;;;;;;;14.23;3.20;;;;;;;10.51;55.75;101935.88;4858536;28;120249;-78
2024/01/23 03:19:58;;;;;;;15.20;2.45;;;;;;;10.49;55.69;101912.09;4839934;28;118753;-78
2024/01/23 03:22:25;;;;;;;19.38;3.10;;;;;;;10.49;55.82;101924.44;4853240;28;123525;-78
2024/01/23 03:24:53;;;;;;;18.42;2.58;;;;;;;10.48;55.76;101935.97;4854528;28;123258;-78
2024/01/23 03:27:20;;;;;;;17.70;2.63;;;;;;;10.48;55.64;101936.81;4847363;28;122546;-78
2024/01/23 03:29:51;;;;;;;18.63;3.10;;;;;;;10.50;56.00;101939.44;4838564;28;118882;-77
2024/01/23 03:32:18;;;;;;;15.00;2.58;;;;;;;10.49;55.70;101937.69;4853323;28;124042;-78
2024/01/23 03:34:45;;;;;;;13.45;2.38;;;;;;;10.48;55.76;101946.56;4864671;28;125502;-78
2024/01/23 03:37:13;;;;;;;11.38;2.60;;;;;;;10.47;55.68;101944.78;4838722;28;118797;-78
2024/01/23 03:39:40;;;;;;;16.25;2.83;;;;;;;10.47;55.89;101939.50;4869046;28;120120;-79
2024/01/23 03:42:07;;;;;;;18.02;3.00;;;;;;;10.47;55.85;101955.38;4842999;28;123259;-78
2024/01/23 03:44:34;;;;;;;18.65;3.30;;;;;;;10.45;55.83;101957.22;4854340;28;123795;-78
2024/01/23 03:47:02;;;;;;;15.63;3.67;;;;;;;10.44;55.94;101966.09;4838468;28;119606;-78
2024/01/23 03:49:29;;;;;;;14.00;2.65;;;;;;;10.43;55.70;101980.22;4854268;28;118831;-79
2024/01/23 03:51:56;;;;;;;18.13;3.22;;;;;;;10.41;55.90;101988.19;4853495;28;125032;-78
2024/01/23 03:54:24;;;;;;;18.35;2.83;;;;;;;10.40;55.75;101985.63;4854420;28;124358;-78
2024/01/23 03:56:51;;;;;;;12.50;2.88;;;;;;;10.38;55.52;101976.81;4852582;28;121024;-78
2024/01/23 03:59:18;;;;;;;17.35;3.13;;;;;;;10.37;55.94;101994.50;4871297;28;119220;-78
2024/01/23 04:01:45;;;;;;;19.30;3.00;;;;;;;10.37;55.76;102001.56;4871285;28;124055;-78
2024/01/23 04:04:12;;;;;;;17.63;2.83;;;;;;;10.35;55.80;102008.69;4852608;28;126119;-78
2024/01/23 04:06:40;;;;;;;13.23;2.65;;;;;;;10.33;55.97;102006.94;4853100;28;120078;-78
2024/01/23 04:09:07;;;;;;;16.38;3.13;;;;;;;10.31;56.14;102003.47;4838181;28;120715;-78
2024/01/23 04:11:35;;;;;;;18.08;2.83;;;;;;;10.30;55.79;102003.47;4868772;28;123923;-78
2024/01/23 04:14:02;;;;;;;17.48;3.13;;;;;;;10.27;56.04;102007.06;4853171;28;125038;-78
2024/01/23 04:16:30;;;;;;;19.73;2.90;;;;;;;10.24;55.98;102017.72;4870466;28;120309;-78
2024/01/23 04:18:57;;;;;;;14.05;2.53;;;;;;;10.23;55.98;102010.72;4871820;28;120736;-78
2024/01/23 04:21:25;;;;;;;17.20;3.33;;;;;;;10.21;56.18;102006.34;4871516;28;125342;-78
2024/01/23 04:23:52;;;;;;;20.80;3.03;;;;;;;10.20;56.09;102010.78;4869386;28;123130;-78
2024/01/23 04:26:20;;;;;;;18.35;3.25;;;;;;;10.19;56.15;102022.28;4868320;28;118826;-78
2024/01/23 04:28:48;;;;;;;18.88;3.28;;;;;;;10.18;55.87;102023.19;4863346;28;120145;-78
2024/01/23 04:31:16;;;;;;;16.00;3.00;;;;;;;10.16;56.32;102030.28;4833282;28;122467;-78
2024/01/23 04:33:46;;;;;;;17.60;2.97;;;;;;;10.14;56.03;102034.75;4854457;28;124129;-78
2024/01/23 04:36:14;;;;;;;19.20;3.25;;;;;;;10.14;56.23;102042.69;4870599;28;119072;-78
2024/01/23 04:38:42;;;;;;;14.95;3.22;;;;;;;10.12;56.09;102049.81;4854201;28;120268;-78
2024/01/23 04:41:10;;;;;;;18.33;3.00;;;;;;;10.11;56.06;102061.28;4868463;28;123838;-78
2024/01/23 04:43:38;;;;;;;14.23;2.17;;;;;;;10.10;56.05;102071.00;4868251;28;124733;-78
2024/01/23 04:46:06;;;;;;;13.13;2.30;;;;;;;10.09;55.94;102079.00;4852933;28;120289;-78
2024/01/23 04:48:38;;;;;;;14.30;2.50;;;;;;;10.07;56.09;102083.44;4852717;28;120455;-78
2024/01/23 04:51:05;;;;;;;16.33;3.25;;;;;;;10.06;55.96;102084.38;4853277;28;124384;-78
2024/01/23 04:53:33;;;;;;;15.90;3.00;;;;;;;10.05;56.37;102095.84;4869542;28;124064;-78
2024/01/23 04:56:00;;;;;;;13.02;2.67;;;;;;;10.03;56.14;102105.59;4867952;28;121109;-78
2024/01/23 04:58:28;;;;;;;14.77;2.50;;;;;;;10.00;56.09;102103.00;4855072;28;118193;-78
2024/01/23 05:00:55;;;;;;;14.80;2.92;;;;;;;9.99;56.16;102106.59;4872051;28;124156;-78
2024/01/23 05:03:22;;;;;;;14.65;3.10;;;;;;;9.98;56.02;102123.34;4850853;28;123142;-78
2024/01/23 05:05:50;;;;;;;14.88;3.10;;;;;;;9.95;56.17;102119.00;4838839;28;118709;-78
2024/01/23 05:08:17;;;;;;;18.33;2.55;;;;;;;9.93;56.19;102132.28;4870432;28;118871;-78
2024/01/23 05:10:45;;;;;;;15.40;2.33;;;;;;;9.90;56.02;102142.91;4859065;28;124611;-78
2024/01/23 05:13:12;;;;;;;20.27;3.65;;;;;;;9.89;56.06;102148.25;4873416;28;123613;-78
2024/01/23 05:15:39;;;;;;;16.88;3.15;;;;;;;9.87;56.23;102156.22;4850654;28;119257;-78
2024/01/23 05:18:07;;;;;;;13.75;2.40;;;;;;;9.86;56.00;102153.59;4866142;28;120272;-78
2024/01/23 05:20:36;;;;;;;16.13;3.05;;;;;;;9.83;56.15;102157.19;4854689;28;123459;-78
2024/01/23 05:23:03;;;;;;;17.30;3.03;;;;;;;9.81;56.25;102161.63;4850473;28;123826;-78
2024/01/23 05:25:31;;;;;;;14.13;2.92;;;;;;;9.79;55.94;102163.44;4853728;28;118692;-78
2024/01/23 05:27:59;;;;;;;21.08;3.38;;;;;;;9.78;56.25;102161.72;4868910;28;118739;-78
2024/01/23 05:30:26;;;;;;;14.38;2.75;;;;;;;9.75;56.14;102164.41;4835726;28;123349;-78
2024/01/23 05:32:53;;;;;;;18.40;3.17;;;;;;;9.71;56.28;102168.03;4867530;28;123174;-78
2024/01/23 05:35:21;;;;;;;19.23;3.47;;;;;;;9.70;56.27;102168.91;4855749;28;118135;-78
2024/01/23 05:37:48;;;;;;;18.80;2.33;;;;;;;9.68;56.50;102178.66;4851939;28;118927;-78
2024/01/23 05:40:16;;;;;;;19.67;3.30;;;;;;;9.67;56.42;102195.44;4869249;28;124303;-77
2024/01/23 05:42:43;;;;;;;17.73;2.97;;;;;;;9.64;56.43;102195.50;4852365;28;123589;-76
2024/01/23 05:45:10;;;;;;;21.35;3.05;;;;;;;9.62;56.28;102197.28;4852843;28;119624;-77
2024/01/23 05:47:38;;;;;;;20.20;3.55;;;;;;;9.60;56.44;102209.69;4852492;28;118516;-77
2024/01/23 05:50:05;;;;;;;17.38;3.22;;;;;;;9.59;56.54;102213.22;4845440;28;124416;-76
2024/01/23 05:52:33;;;;;;;16.38;3.38;;;;;;;9.57;56.39;102231.78;4852072;28;124031;-77
2024/01/23 05:55:01;;;;;;;23.17;3.53;;;;;;;9.57;56.39;102230.88;4851323;28;121170;-76
2024/01/23 05:57:28;;;;;;;19.50;3.50;;;;;;;9.54;56.35;102237.97;4851195;28;119613;-77
2024/01/23 05:59:56;;;;;;;17.40;3.03;;;;;;;9.53;56.40;102238.91;4851833;29;124994;-76
2024/01/23 06:02:23;;;;;;;19.20;2.80;;;;;;;9.50;56.54;102241.59;4853173;28;123714;-77
2024/01/23 06:04:51;;;;;;;14.18;2.80;;;;;;;9.48;56.62;102232.81;4868108;28;118415;-76
2024/01/23 06:07:18;;;;;;;15.50;2.67;;;;;;;9.45;56.50;102243.44;4870791;28;120081;-76
2024/01/23 06:09:45;;;;;;;14.85;3.40;;;;;;;9.43;56.50;102234.66;4868486;28;124023;-76
2024/01/23 06:12:12;;;;;;;17.55;3.60;;;;;;;9.39;56.58;102232.97;4827282;28;124785;-77
2024/01/23 06:14:40;;;;;;;16.77;2.97;;;;;;;9.37;56.80;102237.41;4855369;28;119812;-77
2024/01/23 06:17:07;;;;;;;19.67;2.92;;;;;;;9.35;56.83;102241.88;4870521;28;120229;-77
2024/01/23 06:19:35;;;;;;;19.95;2.67;;;;;;;9.33;56.74;102254.25;4838244;28;124916;-77
2024/01/23 06:22:03;;;;;;;18.35;2.42;;;;;;;9.31;56.50;102256.03;4856421;28;125075;-77
2024/01/23 06:24:31;;;;;;;18.38;2.58;;;;;;;9.28;56.55;102266.66;4854541;28;121140;-76
2024/01/23 06:26:59;;;;;;;14.98;2.78;;;;;;;9.26;56.84;102268.47;4847459;28;119080;-76
2024/01/23 06:29:27;;;;;;;14.45;2.50;;;;;;;9.23;56.88;102276.41;4862312;28;123404;-77
2024/01/23 06:31:54;;;;;;;19.50;2.60;;;;;;;9.21;56.95;102280.88;4839805;28;123892;-76
2024/01/23 06:34:21;;;;;;;14.57;2.90;;;;;;;9.18;56.92;102286.22;4851721;28;118674;-77
2024/01/23 06:36:49;;;;;;;14.43;2.45;;;;;;;9.14;56.63;102296.84;4845730;28;119143;-76
2024/01/23 06:39:16;;;;;;;16.17;2.60;;;;;;;9.11;56.99;102296.88;4868886;28;123750;-77
2024/01/23 06:41:45;;;;;;;15.05;2.28;;;;;;;9.08;56.82;102296.94;4854823;28;124068;-77
2024/01/23 06:44:12;;;;;;;12.15;3.10;;;;;;;9.04;56.98;102295.25;4854309;28;120303;-77
2024/01/23 06:46:40;;;;;;;16.73;2.95;;;;;;;9.01;57.03;102303.19;4871488;28;120379;-77
2024/01/23 06:49:07;;;;;;;19.83;2.58;;;;;;;8.99;56.87;102312.94;4870772;28;125070;-77
2024/01/23 06:51:36;;;;;;;11.55;2.60;;;;;;;8.97;57.06;102309.44;4886268;28;125127;-76
2024/01/23 06:54:07;;;;;;;11.65;2.28;;;;;;;8.95;57.07;102316.50;4896052;28;118683;-75
2024/01/23 06:56:35;;;;;;;9.73;1.60;;;;;;;8.94;57.29;102320.03;4899908;28;119258;-75
2024/01/23 06:59:04;;;;;;;11.90;2.28;;;;;;;8.92;57.27;102317.41;4876955;28;122967;-75
2024/01/23 07:01:32;;;;;;;7.85;1.98;;;;;;;8.91;57.01;102335.94;4862691;28;124724;-75
2024/01/23 07:03:59;;;;;;;10.75;2.03;;;;;;;8.89;56.89;102329.78;4865070;28;118526;-77
2024/01/23 07:06:27;;;;;;;13.77;2.47;;;;;;;8.88;57.27;102330.72;4878386;28;118314;-76
2024/01/23 07:08:54;;;;;;;11.65;1.67;;;;;;;8.87;57.05;102334.22;4862722;28;123551;-76
2024/01/23 07:11:21;;;;;;;13.35;1.67;;;;;;;8.85;57.25;102330.72;4879832;28;123518;-76
2024/01/23 07:13:49;;;;;;;12.77;1.98;;;;;;;8.84;57.16;102334.28;4896547;28;120190;-76
2024/01/23 07:16:17;;;;;;;16.35;2.05;;;;;;;8.83;57.51;102332.53;4892390;28;117779;-76
2024/01/23 07:18:44;;;;;;;9.43;1.80;;;;;;;8.83;57.49;102337.81;4861388;28;123461;-77
2024/01/23 07:21:12;;;;;;;10.32;2.03;;;;;;;8.83;57.21;102343.97;4870865;28;124385;-76
2024/01/23 07:23:39;;;;;;;15.32;2.40;;;;;;;8.82;57.47;102347.50;4870959;28;120517;-77
2024/01/23 07:26:07;;;;;;;9.80;2.17;;;;;;;8.83;57.33;102343.09;4872096;28;119514;-76
2024/01/23 07:28:34;;;;;;;13.43;2.13;;;;;;;8.82;57.33;102341.38;4865454;28;123131;-76
2024/01/23 07:31:21;;;;;;;15.60;2.35;;;;;;;8.83;57.51;102343.09;4826952;28;124337;-76
2024/01/23 07:34:03;;;;;;;15.70;2.22;;;;;;;8.81;57.27;102345.75;4851477;28;120561;-76
2024/01/23 07:36:37;;;;;;;10.68;2.22;;;;;;;8.80;57.60;102358.97;4834255;28;120698;-76
2024/01/23 07:39:05;;;;;;;16.70;2.60;;;;;;;8.80;57.40;102369.53;4833475;29;124552;-77
2024/01/23 07:41:33;;;;;;;13.32;2.05;;;;;;;8.80;57.36;102364.25;4854395;28;123923;-77
2024/01/23 07:44:00;;;;;;;17.33;2.28;;;;;;;8.79;57.41;102373.09;4866547;28;119414;-77
2024/01/23 07:46:27;;;;;;;16.35;2.47;;;;;;;8.80;57.60;102382.75;4848312;28;120729;-77
2024/01/23 07:48:54;;;;;;;11.88;2.10;;;;;;;8.79;57.41;102388.94;4837794;29;125104;-77
2024/01/23 07:51:22;;;;;;;14.85;1.90;;;;;;;8.79;57.43;102384.53;4852139;28;123731;-77
2024/01/23 07:53:50;;;;;;;12.10;1.98;;;;;;;8.80;57.76;102385.41;4828734;29;120509;-77
2024/01/23 07:56:18;;;;;;;11.65;2.03;;;;;;;8.80;57.62;102395.97;4851520;28;119476;-77
2024/01/23 07:58:46;;;;;;;7.00;1.88;;;;;;;8.79;57.77;102395.09;4864126;28;124324;-77
2024/01/23 08:01:14;;;;;;;8.77;2.00;;;;;;;8.79;57.75;102395.09;4857066;28;126268;-77
2024/01/23 08:03:41;;;;;;;10.98;1.90;;;;;;;8.82;57.52;102407.41;4851096;28;120013;-77
2024/01/23 08:06:09;;;;;;;13.40;2.22;;;;;;;8.81;57.77;102409.16;4814760;28;120170;-77
2024/01/23 08:08:39;;;;;;;18.45;2.22;;;;;;;8.82;57.57;102412.69;4816992;28;124445;-77
2024/01/23 08:11:06;;;;;;;14.82;1.92;;;;;;;8.83;57.68;102417.06;4824269;28;124799;-76
2024/01/23 08:13:34;;;;;;;12.45;1.95;;;;;;;8.84;57.75;102413.56;4863373;28;119941;-77
2024/01/23 08:16:01;;;;;;;13.63;2.10;;;;;;;8.83;57.68;102422.34;4834613;29;119796;-77
2024/01/23 08:18:28;;;;;;;19.95;2.10;;;;;;;8.85;57.73;102431.13;4833958;29;125911;-77
2024/01/23 08:20:56;;;;;;;13.93;2.78;;;;;;;8.86;57.76;102443.47;4834663;29;125279;-77
2024/01/23 08:23:23;;;;;;;10.82;1.80;;;;;;;8.89;57.72;102448.69;4835013;28;119758;-77
2024/01/23 08:25:51;;;;;;;13.95;2.38;;;;;;;8.89;58.04;102443.41;4852013;29;119333;-77
2024/01/23 08:28:19;;;;;;;16.60;2.17;;;;;;;8.92;57.80;102448.66;4829016;28;123571;-77
2024/01/23 08:30:46;;;;;;;18.25;2.35;;;;;;;8.94;57.99;102452.16;4860000;28;125068;-77
2024/01/23 08:33:17;;;;;;;12.27;2.10;;;;;;;8.95;57.82;102446.00;4855264;28;121489;-77
2024/01/23 08:35:45;;;;;;;15.10;2.33;;;;;;;8.97;57.75;102449.50;4869222;28;120115;-77
2024/01/23 08:38:13;;;;;;;15.73;2.40;;;;;;;8.99;57.67;102460.91;4835935;28;125264;-77
2024/01/23 08:40:41;;;;;;;12.20;2.38;;;;;;;9.02;58.05;102465.28;4849452;28;124079;-77
2024/01/23 08:43:09;;;;;;;17.20;2.20;;;;;;;9.03;57.78;102462.63;4830225;28;121558;-77
2024/01/23 08:45:36;;;;;;;11.20;2.08;;;;;;;9.04;58.02;102469.66;4837360;28;120239;-77
2024/01/23 08:48:04;;;;;;;16.67;2.30;;;;;;;9.05;57.74;102481.97;4851356;28;123195;-77
2024/01/23 08:50:32;;;;;;;13.10;2.17;;;;;;;9.07;57.84;102479.31;4852460;28;124281;-77
2024/01/23 08:52:59;;;;;;;14.38;2.63;;;;;;;9.07;57.75;102485.47;4869743;28;119479;-77
2024/01/23 08:55:26;;;;;;;12.80;2.33;;;;;;;9.07;57.96;102480.19;4875523;28;119112;-77
2024/01/23 08:57:53;;;;;;;13.32;2.08;;;;;;;9.09;58.03;102488.97;4869054;28;126034;-77
2024/01/23 09:00:22;;;;;;;11.02;2.35;;;;;;;9.12;57.86;102493.34;4870738;28;123387;-77
2024/01/23 09:02:49;;;;;;;11.65;2.13;;;;;;;9.12;57.98;102494.22;4869402;28;120164;-77
2024/01/23 09:05:16;;;;;;;11.27;2.20;;;;;;;9.13;57.93;102490.66;4847073;28;120915;-77
2024/01/23 09:07:43;;;;;;;10.25;2.13;;;;;;;9.14;58.12;102481.84;4866291;28;123265;-77
2024/01/23 09:10:11;;;;;;;13.88;2.10;;;;;;;9.17;57.89;102480.94;4837491;28;126476;-77
2024/01/23 09:12:38;;;;;;;7.53;2.10;;;;;;;9.17;57.84;102491.50;4865759;28;121001;-77
2024/01/23 09:15:05;;;;;;;16.98;2.03;;;;;;;9.20;58.12;102495.91;4847582;28;119921;-78
2024/01/23 09:17:33;;;;;;;13.00;2.17;;;;;;;9.21;58.29;102487.06;4863349;28;124000;-77
2024/01/23 09:20:00;;;;;;;11.95;2.38;;;;;;;9.24;58.19;102492.31;4868532;28;124226;-77
2024/01/23 09:22:29;;;;;;;13.15;2.13;;;;;;;9.28;58.03;102499.31;4839685;28;118788;-77
2024/01/23 09:24:57;;;;;;;13.55;2.15;;;;;;;9.31;58.00;102494.00;4869405;28;119138;-77
2024/01/23 09:27:24;;;;;;;10.73;2.30;;;;;;;9.33;58.07;102492.19;4869420;28;124188;-77
2024/01/23 09:30:04;;;;;;;12.57;2.13;;;;;;;9.36;58.19;102486.84;4865511;28;123922;-77
2024/01/23 09:32:31;;;;;;;9.25;2.40;;;;;;;9.38;58.15;102474.50;4867503;28;120016;-77
2024/01/23 09:34:59;;;;;;;10.60;1.90;;;;;;;9.42;58.07;102481.50;4855117;28;119806;-77
2024/01/23 09:37:27;;;;;;;12.80;2.15;;;;;;;9.46;58.14;102475.28;4871961;28;123570;-77
2024/01/23 09:39:54;;;;;;;14.48;2.80;;;;;;;9.50;58.00;102489.31;4854697;28;125797;-78
2024/01/23 09:42:25;;;;;;;12.98;2.72;;;;;;;9.52;58.33;102477.81;4869582;28;120157;-77
2024/01/23 09:44:55;;;;;;;12.80;2.17;;;;;;;9.58;58.37;102491.88;4855878;28;121640;-77
2024/01/23 09:47:24;;;;;;;15.80;2.33;;;;;;;9.63;58.00;102490.03;4827658;28;124857;-77
2024/01/23 09:49:52;;;;;;;14.98;2.13;;;;;;;9.68;58.13;102494.34;4865714;28;125010;-78
2024/01/23 09:52:21;;;;;;;13.65;2.47;;;;;;;9.72;57.97;102500.47;4855294;28;119075;-78
2024/01/23 09:54:48;;;;;;;13.50;2.40;;;;;;;9.78;58.16;102505.69;4871878;28;118367;-77
2024/01/23 09:57:16;;;;;;;13.82;2.92;;;;;;;9.83;58.38;102506.50;4872496;28;123916;-77
2024/01/23 09:59:44;;;;;;;13.15;2.50;;;;;;;9.88;58.35;102507.28;4871024;28;124642;-77
2024/01/23 10:02:11;;;;;;;9.13;1.90;;;;;;;9.94;58.14;102517.78;4871760;28;120377;-78
2024/01/23 10:04:40;;;;;;;13.25;2.55;;;;;;;10.00;58.40;102513.28;4854867;28;120977;-78
2024/01/23 10:07:08;;;;;;;10.35;2.58;;;;;;;10.06;57.99;102515.84;4854614;28;123575;-77
2024/01/23 10:09:36;;;;;;;16.23;3.50;;;;;;;10.11;58.04;102513.97;4855094;28;124029;-77
2024/01/23 10:12:04;;;;;;;10.63;2.40;;;;;;;10.16;58.11;102516.56;4855340;28;119050;-78
2024/01/23 10:14:31;;;;;;;11.60;2.60;;;;;;;10.19;58.07;102520.03;4872530;28;119239;-78
2024/01/23 10:16:58;;;;;;;14.05;2.75;;;;;;;10.25;58.05;102504.03;4854959;28;125085;-77
2024/01/23 10:19:25;;;;;;;11.18;2.33;;;;;;;10.30;58.06;102502.22;4855356;28;124360;-78
2024/01/23 10:21:53;;;;;;;12.80;2.20;;;;;;;10.35;58.02;102517.16;4854235;28;117870;-78
2024/01/23 10:24:21;;;;;;;11.38;2.20;;;;;;;10.40;57.67;102510.03;4867750;28;120074;-77
2024/01/23 10:26:48;;;;;;;13.48;2.60;;;;;;;10.45;57.96;102510.78;4867393;28;124125;-77
2024/01/23 10:29:16;;;;;;;10.18;2.40;;;;;;;10.51;57.95;102513.34;4851298;28;124437;-77
2024/01/23 10:31:43;;;;;;;15.00;2.50;;;;;;;10.56;57.81;102516.78;4869951;28;118876;-77
2024/01/23 10:34:12;;;;;;;13.50;2.28;;;;;;;10.60;57.61;102502.56;4855540;28;120146;-77
2024/01/23 10:36:42;;;;;;;16.25;2.30;;;;;;;10.66;57.73;102514.81;4870337;28;124070;-76
2024/01/23 10:39:12;;;;;;;15.60;2.50;;;;;;;10.70;57.58;102514.75;4854663;28;125063;-77
2024/01/23 10:41:40;;;;;;;19.40;2.80;;;;;;;10.77;57.55;102504.03;4854299;28;119981;-78
2024/01/23 10:44:10;;;;;;;17.08;2.83;;;;;;;10.80;57.44;102504.84;4855072;28;119379;-78
2024/01/23 10:46:38;;;;;;;8.65;1.92;;;;;;;10.86;57.75;102509.16;4838966;29;124397;-78
2024/01/23 10:49:07;;;;;;;13.23;2.38;;;;;;;10.93;57.76;102494.88;4863918;28;125502;-77
2024/01/23 10:51:36;;;;;;;14.82;2.70;;;;;;;11.01;57.71;102498.25;4853932;28;121859;-77
2024/01/23 10:54:12;;;;;;;20.00;2.70;;;;;;;11.06;57.52;102491.06;4865669;28;120332;-78
2024/01/23 10:56:45;;;;;;;15.43;2.92;;;;;;;11.12;57.32;102499.81;4836925;28;126172;-77
2024/01/23 10:59:17;;;;;;;14.00;2.80;;;;;;;11.15;57.08;102505.03;4857440;28;125981;-77
2024/01/23 11:01:50;;;;;;;18.10;2.40;;;;;;;11.18;57.26;102505.84;4845464;28;119931;-77
2024/01/23 11:04:17;;;;;;;16.60;2.97;;;;;;;11.23;57.23;102497.81;4859481;28;119451;-77
2024/01/23 11:06:52;;;;;;;17.90;3.08;;;;;;;11.28;57.14;102511.84;4838527;28;125171;-77
2024/01/23 11:09:24;;;;;;;15.35;2.60;;;;;;;11.34;57.23;102501.13;4835591;28;124007;-78
2024/01/23 11:12:16;;;;;;;11.98;2.60;;;;;;;11.40;57.15;102490.38;4846584;28;118139;-78
2024/01/23 11:14:49;;;;;;;15.18;2.72;;;;;;;11.46;57.27;102484.91;4850315;28;119939;-78